sensor_id;sensor_type;location;lat;lon;timestamp;P1;durP1;ratioP1;P2;durP2;ratioP2
48552;SDS011;34335;51.566;6.994;2022-12-18T00:01:41;16.92;;;6.40;;
48552;SDS011;34335;51.566;6.994;2022-12-18T00:04:04;13.05;;;7.13;;
48552;SDS011;34335;51.566;6.994;2022-12-18T00:06:30;10.68;;;5.85;;
48552;SDS011;34335;51.566;6.994;2022-12-18T00:08:57;10.43;;;4.68;;
48552;SDS011;34335;51.566;6.994;2022-12-18T00:11:25;7.38;;;4.90;;
48552;SDS011;34335;51.566;6.994;2022-12-18T00:13:54;7.72;;;4.47;;
48552;SDS011;34335;51.566;6.994;2022-12-18T00:16:21;18.65;;;6.78;;
48552;SDS011;34335;51.566;6.994;2022-12-18T00:18:48;6.47;;;3.53;;
48552;SDS011;34335;51.566;6.994;2022-12-18T00:21:15;11.45;;;4.82;;
48552;SDS011;34335;51.566;6.994;2022-12-18T00:23:41;4.32;;;3.45;;
48552;SDS011;34335;51.566;6.994;2022-12-18T00:26:12;7.00;;;4.47;;
48552;SDS011;34335;51.566;6.994;2022-12-18T00:28:40;10.00;;;6.57;;
48552;SDS011;34335;51.566;6.994;2022-12-18T00:31:06;6.80;;;4.90;;
48552;SDS011;34335;51.566;6.994;2022-12-18T00:33:34;11.07;;;5.20;;
48552;SDS011;34335;51.566;6.994;2022-12-18T00:36:03;8.32;;;5.53;;
48552;SDS011;34335;51.566;6.994;2022-12-18T00:38:30;13.48;;;7.30;;
48552;SDS011;34335;51.566;6.994;2022-12-18T00:40:55;4.97;;;3.45;;
48552;SDS011;34335;51.566;6.994;2022-12-18T00:43:21;12.32;;;5.05;;
48552;SDS011;34335;51.566;6.994;2022-12-18T00:45:46;6.68;;;4.05;;
48552;SDS011;34335;51.566;6.994;2022-12-18T00:48:12;16.30;;;7.05;;
48552;SDS011;34335;51.566;6.994;2022-12-18T00:50:37;8.73;;;4.07;;
48552;SDS011;34335;51.566;6.994;2022-12-18T00:53:03;9.40;;;3.58;;
48552;SDS011;34335;51.566;6.994;2022-12-18T00:55:28;10.10;;;5.53;;
48552;SDS011;34335;51.566;6.994;2022-12-18T00:57:53;8.55;;;5.68;;
48552;SDS011;34335;51.566;6.994;2022-12-18T01:00:19;8.07;;;4.50;;
48552;SDS011;34335;51.566;6.994;2022-12-18T01:02:44;11.48;;;6.22;;
48552;SDS011;34335;51.566;6.994;2022-12-18T01:05:10;14.48;;;6.60;;
48552;SDS011;34335;51.566;6.994;2022-12-18T01:07:37;9.00;;;4.18;;
48552;SDS011;34335;51.566;6.994;2022-12-18T01:10:03;7.53;;;5.57;;
48552;SDS011;34335;51.566;6.994;2022-12-18T01:12:29;9.20;;;6.10;;
48552;SDS011;34335;51.566;6.994;2022-12-18T01:14:54;5.28;;;3.90;;
48552;SDS011;34335;51.566;6.994;2022-12-18T01:17:20;8.93;;;4.45;;
48552;SDS011;34335;51.566;6.994;2022-12-18T01:19:45;6.40;;;4.03;;
48552;SDS011;34335;51.566;6.994;2022-12-18T01:22:11;8.05;;;5.07;;
48552;SDS011;34335;51.566;6.994;2022-12-18T01:24:36;7.68;;;5.28;;
48552;SDS011;34335;51.566;6.994;2022-12-18T01:27:01;20.55;;;6.03;;
48552;SDS011;34335;51.566;6.994;2022-12-18T01:29:27;10.20;;;5.93;;
48552;SDS011;34335;51.566;6.994;2022-12-18T01:31:54;14.20;;;5.38;;
48552;SDS011;34335;51.566;6.994;2022-12-18T01:34:20;8.95;;;6.03;;
48552;SDS011;34335;51.566;6.994;2022-12-18T01:36:46;8.80;;;6.13;;
48552;SDS011;34335;51.566;6.994;2022-12-18T01:39:13;6.78;;;4.63;;
48552;SDS011;34335;51.566;6.994;2022-12-18T01:41:39;7.28;;;5.32;;
48552;SDS011;34335;51.566;6.994;2022-12-18T01:47:12;12.38;;;5.60;;
48552;SDS011;34335;51.566;6.994;2022-12-18T01:49:45;11.88;;;5.65;;
48552;SDS011;34335;51.566;6.994;2022-12-18T01:52:10;7.18;;;4.80;;
48552;SDS011;34335;51.566;6.994;2022-12-18T01:54:35;12.57;;;6.10;;
48552;SDS011;34335;51.566;6.994;2022-12-18T01:57:01;5.22;;;4.75;;
48552;SDS011;34335;51.566;6.994;2022-12-18T01:59:26;7.03;;;3.65;;
48552;SDS011;34335;51.566;6.994;2022-12-18T02:01:54;8.13;;;5.07;;
48552;SDS011;34335;51.566;6.994;2022-12-18T02:04:20;3.83;;;3.47;;
48552;SDS011;34335;51.566;6.994;2022-12-18T02:06:49;5.53;;;3.25;;
48552;SDS011;34335;51.566;6.994;2022-12-18T02:09:31;3.97;;;2.17;;
48552;SDS011;34335;51.566;6.994;2022-12-18T02:12:11;3.70;;;2.33;;
48552;SDS011;34335;51.566;6.994;2022-12-18T02:14:53;4.68;;;3.75;;
48552;SDS011;34335;51.566;6.994;2022-12-18T02:17:34;4.75;;;2.83;;
48552;SDS011;34335;51.566;6.994;2022-12-18T02:20:07;2.90;;;2.58;;
48552;SDS011;34335;51.566;6.994;2022-12-18T02:26:06;4.47;;;3.42;;
48552;SDS011;34335;51.566;6.994;2022-12-18T02:28:43;2.38;;;1.73;;
48552;SDS011;34335;51.566;6.994;2022-12-18T02:31:16;9.93;;;4.18;;
48552;SDS011;34335;51.566;6.994;2022-12-18T02:33:46;8.52;;;3.65;;
48552;SDS011;34335;51.566;6.994;2022-12-18T02:36:13;8.70;;;4.53;;
48552;SDS011;34335;51.566;6.994;2022-12-18T02:38:41;7.82;;;3.83;;
48552;SDS011;34335;51.566;6.994;2022-12-18T02:41:08;4.38;;;2.67;;
48552;SDS011;34335;51.566;6.994;2022-12-18T02:43:36;8.82;;;3.67;;
48552;SDS011;34335;51.566;6.994;2022-12-18T02:46:01;6.18;;;3.25;;
48552;SDS011;34335;51.566;6.994;2022-12-18T02:51:53;5.03;;;2.95;;
48552;SDS011;34335;51.566;6.994;2022-12-18T02:54:27;6.68;;;3.08;;
48552;SDS011;34335;51.566;6.994;2022-12-18T02:56:58;9.18;;;3.63;;
48552;SDS011;34335;51.566;6.994;2022-12-18T02:59:50;5.70;;;3.28;;
48552;SDS011;34335;51.566;6.994;2022-12-18T03:02:36;2.03;;;1.38;;
48552;SDS011;34335;51.566;6.994;2022-12-18T03:05:07;8.43;;;4.82;;
48552;SDS011;34335;51.566;6.994;2022-12-18T03:07:35;4.78;;;2.90;;
48552;SDS011;34335;51.566;6.994;2022-12-18T03:10:06;5.65;;;2.78;;
48552;SDS011;34335;51.566;6.994;2022-12-18T03:12:37;3.92;;;2.42;;
48552;SDS011;34335;51.566;6.994;2022-12-18T03:17:51;4.63;;;2.28;;
48552;SDS011;34335;51.566;6.994;2022-12-18T03:20:22;3.65;;;2.28;;
48552;SDS011;34335;51.566;6.994;2022-12-18T03:22:51;5.70;;;3.80;;
48552;SDS011;34335;51.566;6.994;2022-12-18T03:25:20;4.25;;;2.58;;
48552;SDS011;34335;51.566;6.994;2022-12-18T03:27:49;5.40;;;2.20;;
48552;SDS011;34335;51.566;6.994;2022-12-18T03:30:19;8.95;;;2.25;;
48552;SDS011;34335;51.566;6.994;2022-12-18T03:32:56;3.65;;;2.33;;
48552;SDS011;34335;51.566;6.994;2022-12-18T03:35:31;3.75;;;1.63;;
48552;SDS011;34335;51.566;6.994;2022-12-18T03:37:59;4.40;;;1.08;;
48552;SDS011;34335;51.566;6.994;2022-12-18T03:40:41;0.98;;;0.95;;
48552;SDS011;34335;51.566;6.994;2022-12-18T03:43:40;5.97;;;2.30;;
48552;SDS011;34335;51.566;6.994;2022-12-18T03:46:20;5.43;;;2.35;;
48552;SDS011;34335;51.566;6.994;2022-12-18T03:48:56;8.05;;;2.92;;
48552;SDS011;34335;51.566;6.994;2022-12-18T03:51:36;2.30;;;1.60;;
48552;SDS011;34335;51.566;6.994;2022-12-18T03:54:09;3.20;;;1.95;;
48552;SDS011;34335;51.566;6.994;2022-12-18T03:56:37;8.55;;;1.45;;
48552;SDS011;34335;51.566;6.994;2022-12-18T03:59:07;5.95;;;2.50;;
48552;SDS011;34335;51.566;6.994;2022-12-18T04:01:36;1.52;;;1.27;;
48552;SDS011;34335;51.566;6.994;2022-12-18T04:04:05;5.82;;;3.42;;
48552;SDS011;34335;51.566;6.994;2022-12-18T04:06:33;1.92;;;1.63;;
48552;SDS011;34335;51.566;6.994;2022-12-18T04:09:00;2.53;;;1.52;;
48552;SDS011;34335;51.566;6.994;2022-12-18T04:11:25;1.55;;;1.05;;
48552;SDS011;34335;51.566;6.994;2022-12-18T04:13:52;2.13;;;1.23;;
48552;SDS011;34335;51.566;6.994;2022-12-18T04:16:21;4.25;;;2.40;;
48552;SDS011;34335;51.566;6.994;2022-12-18T04:18:46;2.67;;;2.45;;
48552;SDS011;34335;51.566;6.994;2022-12-18T04:21:11;8.02;;;2.75;;
48552;SDS011;34335;51.566;6.994;2022-12-18T04:23:37;1.58;;;0.85;;
48552;SDS011;34335;51.566;6.994;2022-12-18T04:26:02;2.33;;;1.88;;
48552;SDS011;34335;51.566;6.994;2022-12-18T04:28:27;1.48;;;1.20;;
48552;SDS011;34335;51.566;6.994;2022-12-18T04:30:53;0.50;;;0.50;;
48552;SDS011;34335;51.566;6.994;2022-12-18T04:33:18;6.72;;;1.98;;
48552;SDS011;34335;51.566;6.994;2022-12-18T04:35:43;0.80;;;0.63;;
48552;SDS011;34335;51.566;6.994;2022-12-18T04:38:09;4.53;;;1.55;;
48552;SDS011;34335;51.566;6.994;2022-12-18T04:40:35;6.32;;;2.88;;
48552;SDS011;34335;51.566;6.994;2022-12-18T04:43:02;2.33;;;2.13;;
48552;SDS011;34335;51.566;6.994;2022-12-18T04:45:28;1.88;;;1.02;;
48552;SDS011;34335;51.566;6.994;2022-12-18T04:47:53;4.05;;;2.35;;
48552;SDS011;34335;51.566;6.994;2022-12-18T04:50:18;2.72;;;1.13;;
48552;SDS011;34335;51.566;6.994;2022-12-18T04:52:43;4.25;;;1.63;;
48552;SDS011;34335;51.566;6.994;2022-12-18T04:55:09;2.72;;;2.05;;
48552;SDS011;34335;51.566;6.994;2022-12-18T04:57:34;8.05;;;2.38;;
48552;SDS011;34335;51.566;6.994;2022-12-18T04:59:59;9.27;;;2.75;;
48552;SDS011;34335;51.566;6.994;2022-12-18T05:02:24;4.88;;;2.13;;
48552;SDS011;34335;51.566;6.994;2022-12-18T05:04:50;2.50;;;2.08;;
48552;SDS011;34335;51.566;6.994;2022-12-18T05:07:15;4.00;;;2.45;;
48552;SDS011;34335;51.566;6.994;2022-12-18T05:09:40;2.92;;;1.38;;
48552;SDS011;34335;51.566;6.994;2022-12-18T05:12:06;4.95;;;2.80;;
48552;SDS011;34335;51.566;6.994;2022-12-18T05:14:31;3.90;;;1.02;;
48552;SDS011;34335;51.566;6.994;2022-12-18T05:16:56;1.90;;;1.60;;
48552;SDS011;34335;51.566;6.994;2022-12-18T05:19:21;3.30;;;2.15;;
48552;SDS011;34335;51.566;6.994;2022-12-18T05:21:47;2.55;;;1.48;;
48552;SDS011;34335;51.566;6.994;2022-12-18T05:24:12;4.13;;;2.03;;
48552;SDS011;34335;51.566;6.994;2022-12-18T05:26:37;3.92;;;2.28;;
48552;SDS011;34335;51.566;6.994;2022-12-18T05:29:03;6.03;;;3.60;;
48552;SDS011;34335;51.566;6.994;2022-12-18T05:31:28;1.17;;;1.02;;
48552;SDS011;34335;51.566;6.994;2022-12-18T05:33:54;1.15;;;1.05;;
48552;SDS011;34335;51.566;6.994;2022-12-18T05:36:19;6.45;;;1.73;;
48552;SDS011;34335;51.566;6.994;2022-12-18T05:38:44;4.03;;;1.75;;
48552;SDS011;34335;51.566;6.994;2022-12-18T05:41:09;1.27;;;0.85;;
48552;SDS011;34335;51.566;6.994;2022-12-18T05:43:36;1.15;;;1.05;;
48552;SDS011;34335;51.566;6.994;2022-12-18T05:46:03;4.07;;;2.00;;
48552;SDS011;34335;51.566;6.994;2022-12-18T05:48:33;3.58;;;1.50;;
48552;SDS011;34335;51.566;6.994;2022-12-18T05:51:32;0.73;;;0.73;;
48552;SDS011;34335;51.566;6.994;2022-12-18T05:53:50;1.77;;;1.65;;
48552;SDS011;34335;51.566;6.994;2022-12-18T05:56:17;4.07;;;1.83;;
48552;SDS011;34335;51.566;6.994;2022-12-18T05:58:44;1.88;;;1.38;;
48552;SDS011;34335;51.566;6.994;2022-12-18T06:01:11;6.63;;;3.17;;
48552;SDS011;34335;51.566;6.994;2022-12-18T06:03:39;5.75;;;4.15;;
48552;SDS011;34335;51.566;6.994;2022-12-18T06:06:12;3.45;;;1.98;;
48552;SDS011;34335;51.566;6.994;2022-12-18T06:08:38;1.05;;;1.00;;
48552;SDS011;34335;51.566;6.994;2022-12-18T06:11:04;3.45;;;1.88;;
48552;SDS011;34335;51.566;6.994;2022-12-18T06:13:29;1.13;;;1.02;;
48552;SDS011;34335;51.566;6.994;2022-12-18T06:15:54;2.13;;;1.40;;
48552;SDS011;34335;51.566;6.994;2022-12-18T06:18:20;1.00;;;0.73;;
48552;SDS011;34335;51.566;6.994;2022-12-18T06:20:45;4.60;;;1.58;;
48552;SDS011;34335;51.566;6.994;2022-12-18T06:23:18;3.85;;;2.15;;
48552;SDS011;34335;51.566;6.994;2022-12-18T06:25:43;1.27;;;0.90;;
48552;SDS011;34335;51.566;6.994;2022-12-18T06:28:09;0.65;;;0.60;;
48552;SDS011;34335;51.566;6.994;2022-12-18T06:30:34;1.17;;;0.95;;
48552;SDS011;34335;51.566;6.994;2022-12-18T06:33:01;3.10;;;1.38;;
48552;SDS011;34335;51.566;6.994;2022-12-18T06:35:26;1.95;;;1.27;;
48552;SDS011;34335;51.566;6.994;2022-12-18T06:37:51;1.60;;;0.70;;
48552;SDS011;34335;51.566;6.994;2022-12-18T06:40:17;3.50;;;2.00;;
48552;SDS011;34335;51.566;6.994;2022-12-18T06:42:42;2.08;;;1.65;;
48552;SDS011;34335;51.566;6.994;2022-12-18T06:45:07;3.70;;;1.70;;
48552;SDS011;34335;51.566;6.994;2022-12-18T06:47:33;5.20;;;2.03;;
48552;SDS011;34335;51.566;6.994;2022-12-18T06:49:58;0.55;;;0.55;;
48552;SDS011;34335;51.566;6.994;2022-12-18T06:52:23;2.60;;;1.38;;
48552;SDS011;34335;51.566;6.994;2022-12-18T06:54:49;1.60;;;1.50;;
48552;SDS011;34335;51.566;6.994;2022-12-18T06:57:14;1.65;;;1.30;;
48552;SDS011;34335;51.566;6.994;2022-12-18T06:59:39;4.82;;;1.55;;
48552;SDS011;34335;51.566;6.994;2022-12-18T07:02:05;0.75;;;0.75;;
48552;SDS011;34335;51.566;6.994;2022-12-18T07:04:30;4.57;;;1.23;;
48552;SDS011;34335;51.566;6.994;2022-12-18T07:06:56;3.78;;;1.52;;
48552;SDS011;34335;51.566;6.994;2022-12-18T07:09:22;10.48;;;1.67;;
48552;SDS011;34335;51.566;6.994;2022-12-18T07:11:48;5.72;;;1.40;;
48552;SDS011;34335;51.566;6.994;2022-12-18T07:14:13;1.85;;;1.15;;
48552;SDS011;34335;51.566;6.994;2022-12-18T07:16:39;1.25;;;1.15;;
48552;SDS011;34335;51.566;6.994;2022-12-18T07:19:04;0.75;;;0.65;;
48552;SDS011;34335;51.566;6.994;2022-12-18T07:21:29;1.13;;;1.02;;
48552;SDS011;34335;51.566;6.994;2022-12-18T07:23:54;3.33;;;1.48;;
48552;SDS011;34335;51.566;6.994;2022-12-18T07:26:20;0.68;;;0.68;;
48552;SDS011;34335;51.566;6.994;2022-12-18T07:28:46;1.42;;;1.25;;
48552;SDS011;34335;51.566;6.994;2022-12-18T07:31:17;1.00;;;0.95;;
48552;SDS011;34335;51.566;6.994;2022-12-18T07:33:44;0.93;;;0.75;;
48552;SDS011;34335;51.566;6.994;2022-12-18T07:36:10;3.00;;;2.22;;
48552;SDS011;34335;51.566;6.994;2022-12-18T07:38:36;2.30;;;2.10;;
48552;SDS011;34335;51.566;6.994;2022-12-18T07:41:03;2.03;;;1.48;;
48552;SDS011;34335;51.566;6.994;2022-12-18T07:43:29;1.20;;;1.10;;
48552;SDS011;34335;51.566;6.994;2022-12-18T07:45:55;0.80;;;0.68;;
48552;SDS011;34335;51.566;6.994;2022-12-18T07:48:20;1.67;;;1.58;;
48552;SDS011;34335;51.566;6.994;2022-12-18T07:50:45;3.35;;;1.35;;
48552;SDS011;34335;51.566;6.994;2022-12-18T07:53:11;1.80;;;1.02;;
48552;SDS011;34335;51.566;6.994;2022-12-18T07:55:36;3.42;;;0.95;;
48552;SDS011;34335;51.566;6.994;2022-12-18T07:58:02;2.03;;;1.50;;
48552;SDS011;34335;51.566;6.994;2022-12-18T08:00:29;1.75;;;1.65;;
48552;SDS011;34335;51.566;6.994;2022-12-18T08:02:54;1.45;;;1.30;;
48552;SDS011;34335;51.566;6.994;2022-12-18T08:05:20;1.95;;;0.95;;
48552;SDS011;34335;51.566;6.994;2022-12-18T08:07:45;1.83;;;1.25;;
48552;SDS011;34335;51.566;6.994;2022-12-18T08:10:11;0.82;;;0.57;;
48552;SDS011;34335;51.566;6.994;2022-12-18T08:12:36;4.10;;;1.90;;
48552;SDS011;34335;51.566;6.994;2022-12-18T08:15:01;6.10;;;2.15;;
48552;SDS011;34335;51.566;6.994;2022-12-18T08:17:27;2.05;;;1.38;;
48552;SDS011;34335;51.566;6.994;2022-12-18T08:19:52;6.82;;;2.40;;
48552;SDS011;34335;51.566;6.994;2022-12-18T08:22:18;2.30;;;1.58;;
48552;SDS011;34335;51.566;6.994;2022-12-18T08:24:43;1.23;;;0.82;;
48552;SDS011;34335;51.566;6.994;2022-12-18T08:27:08;2.47;;;1.48;;
48552;SDS011;34335;51.566;6.994;2022-12-18T08:29:34;2.63;;;1.60;;
48552;SDS011;34335;51.566;6.994;2022-12-18T08:31:59;0.70;;;0.38;;
48552;SDS011;34335;51.566;6.994;2022-12-18T08:34:25;1.90;;;1.17;;
48552;SDS011;34335;51.566;6.994;2022-12-18T08:36:50;2.95;;;1.08;;
48552;SDS011;34335;51.566;6.994;2022-12-18T08:39:15;0.85;;;0.82;;
48552;SDS011;34335;51.566;6.994;2022-12-18T08:41:40;1.40;;;0.93;;
48552;SDS011;34335;51.566;6.994;2022-12-18T08:44:09;1.55;;;1.10;;
48552;SDS011;34335;51.566;6.994;2022-12-18T08:46:53;2.33;;;1.77;;
48552;SDS011;34335;51.566;6.994;2022-12-18T08:49:18;1.10;;;0.52;;
48552;SDS011;34335;51.566;6.994;2022-12-18T08:51:43;0.68;;;0.68;;
48552;SDS011;34335;51.566;6.994;2022-12-18T08:54:10;1.33;;;0.80;;
48552;SDS011;34335;51.566;6.994;2022-12-18T08:56:37;7.30;;;2.30;;
48552;SDS011;34335;51.566;6.994;2022-12-18T08:59:02;0.73;;;0.70;;
48552;SDS011;34335;51.566;6.994;2022-12-18T09:01:29;1.15;;;0.90;;
48552;SDS011;34335;51.566;6.994;2022-12-18T09:03:54;1.50;;;1.05;;
48552;SDS011;34335;51.566;6.994;2022-12-18T09:06:20;1.00;;;0.73;;
48552;SDS011;34335;51.566;6.994;2022-12-18T09:08:46;1.30;;;1.20;;
48552;SDS011;34335;51.566;6.994;2022-12-18T09:11:13;1.48;;;1.38;;
48552;SDS011;34335;51.566;6.994;2022-12-18T09:13:49;3.05;;;0.73;;
48552;SDS011;34335;51.566;6.994;2022-12-18T09:16:15;1.05;;;0.65;;
48552;SDS011;34335;51.566;6.994;2022-12-18T09:18:41;7.00;;;1.75;;
48552;SDS011;34335;51.566;6.994;2022-12-18T09:21:25;3.55;;;1.80;;
48552;SDS011;34335;51.566;6.994;2022-12-18T09:23:52;3.28;;;0.90;;
48552;SDS011;34335;51.566;6.994;2022-12-18T09:26:19;4.63;;;2.03;;
48552;SDS011;34335;51.566;6.994;2022-12-18T09:28:46;3.97;;;2.00;;
48552;SDS011;34335;51.566;6.994;2022-12-18T09:31:12;0.75;;;0.60;;
48552;SDS011;34335;51.566;6.994;2022-12-18T09:33:39;0.95;;;0.93;;
48552;SDS011;34335;51.566;6.994;2022-12-18T09:36:05;2.13;;;1.60;;
48552;SDS011;34335;51.566;6.994;2022-12-18T09:38:32;5.10;;;2.30;;
48552;SDS011;34335;51.566;6.994;2022-12-18T09:41:05;4.88;;;1.20;;
48552;SDS011;34335;51.566;6.994;2022-12-18T09:43:53;2.58;;;1.15;;
48552;SDS011;34335;51.566;6.994;2022-12-18T09:46:25;0.80;;;0.70;;
48552;SDS011;34335;51.566;6.994;2022-12-18T09:48:54;1.42;;;1.13;;
48552;SDS011;34335;51.566;6.994;2022-12-18T09:54:26;0.88;;;0.57;;
48552;SDS011;34335;51.566;6.994;2022-12-18T09:57:01;0.80;;;0.77;;
48552;SDS011;34335;51.566;6.994;2022-12-18T09:59:28;1.13;;;1.02;;
48552;SDS011;34335;51.566;6.994;2022-12-18T10:01:58;3.13;;;1.23;;
48552;SDS011;34335;51.566;6.994;2022-12-18T10:04:24;1.88;;;1.52;;
48552;SDS011;34335;51.566;6.994;2022-12-18T10:06:57;2.97;;;2.45;;
48552;SDS011;34335;51.566;6.994;2022-12-18T10:12:29;1.20;;;1.02;;
48552;SDS011;34335;51.566;6.994;2022-12-18T10:20:48;2.40;;;1.05;;
48552;SDS011;34335;51.566;6.994;2022-12-18T10:26:13;4.60;;;2.08;;
48552;SDS011;34335;51.566;6.994;2022-12-18T10:28:39;2.80;;;1.20;;
48552;SDS011;34335;51.566;6.994;2022-12-18T10:31:06;2.13;;;1.25;;
48552;SDS011;34335;51.566;6.994;2022-12-18T10:33:41;1.30;;;0.98;;
48552;SDS011;34335;51.566;6.994;2022-12-18T10:36:07;1.85;;;1.25;;
48552;SDS011;34335;51.566;6.994;2022-12-18T10:38:32;12.30;;;3.00;;
48552;SDS011;34335;51.566;6.994;2022-12-18T10:40:59;1.58;;;1.48;;
48552;SDS011;34335;51.566;6.994;2022-12-18T10:43:36;2.92;;;1.33;;
48552;SDS011;34335;51.566;6.994;2022-12-18T10:48:39;2.28;;;1.30;;
48552;SDS011;34335;51.566;6.994;2022-12-18T10:51:32;3.03;;;0.63;;
48552;SDS011;34335;51.566;6.994;2022-12-18T10:54:02;1.77;;;1.10;;
48552;SDS011;34335;51.566;6.994;2022-12-18T10:56:31;2.10;;;1.00;;
48552;SDS011;34335;51.566;6.994;2022-12-18T10:59:03;1.98;;;0.98;;
48552;SDS011;34335;51.566;6.994;2022-12-18T11:04:23;2.10;;;1.23;;
48552;SDS011;34335;51.566;6.994;2022-12-18T11:06:54;4.72;;;1.20;;
48552;SDS011;34335;51.566;6.994;2022-12-18T11:09:23;1.98;;;0.85;;
48552;SDS011;34335;51.566;6.994;2022-12-18T11:11:51;2.03;;;1.23;;
48552;SDS011;34335;51.566;6.994;2022-12-18T11:16:54;4.03;;;1.70;;
48552;SDS011;34335;51.566;6.994;2022-12-18T11:22:00;4.32;;;2.13;;
48552;SDS011;34335;51.566;6.994;2022-12-18T11:24:32;2.95;;;1.52;;
48552;SDS011;34335;51.566;6.994;2022-12-18T11:27:00;5.57;;;2.92;;
48552;SDS011;34335;51.566;6.994;2022-12-18T11:29:32;4.20;;;2.88;;
48552;SDS011;34335;51.566;6.994;2022-12-18T11:32:12;5.75;;;2.30;;
48552;SDS011;34335;51.566;6.994;2022-12-18T11:34:50;10.27;;;2.22;;
48552;SDS011;34335;51.566;6.994;2022-12-18T11:37:22;3.25;;;1.50;;
48552;SDS011;34335;51.566;6.994;2022-12-18T11:39:56;2.53;;;1.73;;
48552;SDS011;34335;51.566;6.994;2022-12-18T11:47:42;2.85;;;1.85;;
48552;SDS011;34335;51.566;6.994;2022-12-18T11:50:17;5.03;;;2.17;;
48552;SDS011;34335;51.566;6.994;2022-12-18T11:52:45;1.65;;;0.93;;
48552;SDS011;34335;51.566;6.994;2022-12-18T11:55:11;6.93;;;2.47;;
48552;SDS011;34335;51.566;6.994;2022-12-18T11:57:51;4.32;;;1.90;;
48552;SDS011;34335;51.566;6.994;2022-12-18T12:00:23;5.15;;;2.95;;
48552;SDS011;34335;51.566;6.994;2022-12-18T12:08:55;4.85;;;2.40;;
48552;SDS011;34335;51.566;6.994;2022-12-18T12:11:22;3.60;;;1.73;;
48552;SDS011;34335;51.566;6.994;2022-12-18T12:16:55;4.43;;;1.90;;
48552;SDS011;34335;51.566;6.994;2022-12-18T12:19:33;2.17;;;1.23;;
48552;SDS011;34335;51.566;6.994;2022-12-18T12:22:05;8.35;;;2.08;;
48552;SDS011;34335;51.566;6.994;2022-12-18T12:30:20;9.25;;;2.45;;
48552;SDS011;34335;51.566;6.994;2022-12-18T12:33:12;4.63;;;1.92;;
48552;SDS011;34335;51.566;6.994;2022-12-18T12:38:35;3.58;;;1.85;;
48552;SDS011;34335;51.566;6.994;2022-12-18T12:41:07;4.70;;;1.73;;
48552;SDS011;34335;51.566;6.994;2022-12-18T12:43:55;4.05;;;2.60;;
48552;SDS011;34335;51.566;6.994;2022-12-18T12:46:24;4.32;;;2.13;;
48552;SDS011;34335;51.566;6.994;2022-12-18T12:53:50;4.97;;;2.37;;
48552;SDS011;34335;51.566;6.994;2022-12-18T12:56:17;2.45;;;1.20;;
48552;SDS011;34335;51.566;6.994;2022-12-18T13:01:57;8.23;;;2.08;;
48552;SDS011;34335;51.566;6.994;2022-12-18T13:07:32;4.88;;;2.10;;
48552;SDS011;34335;51.566;6.994;2022-12-18T13:12:57;5.18;;;2.40;;
48552;SDS011;34335;51.566;6.994;2022-12-18T13:15:29;4.47;;;2.38;;
48552;SDS011;34335;51.566;6.994;2022-12-18T13:20:34;6.13;;;2.85;;
48552;SDS011;34335;51.566;6.994;2022-12-18T13:23:01;5.85;;;2.63;;
48552;SDS011;34335;51.566;6.994;2022-12-18T13:25:50;6.55;;;2.30;;
48552;SDS011;34335;51.566;6.994;2022-12-18T13:28:17;5.10;;;3.05;;
48552;SDS011;34335;51.566;6.994;2022-12-18T13:40:57;7.63;;;3.03;;
48552;SDS011;34335;51.566;6.994;2022-12-18T13:43:30;6.38;;;2.92;;
48552;SDS011;34335;51.566;6.994;2022-12-18T13:46:06;5.75;;;3.30;;
48552;SDS011;34335;51.566;6.994;2022-12-18T13:48:56;3.50;;;2.60;;
48552;SDS011;34335;51.566;6.994;2022-12-18T13:51:22;4.75;;;2.70;;
48552;SDS011;34335;51.566;6.994;2022-12-18T13:53:53;9.35;;;4.13;;
48552;SDS011;34335;51.566;6.994;2022-12-18T13:56:23;7.30;;;3.75;;
48552;SDS011;34335;51.566;6.994;2022-12-18T13:59:04;8.55;;;2.63;;
48552;SDS011;34335;51.566;6.994;2022-12-18T14:01:33;5.82;;;2.88;;
48552;SDS011;34335;51.566;6.994;2022-12-18T14:04:12;4.30;;;2.97;;
48552;SDS011;34335;51.566;6.994;2022-12-18T14:06:53;9.20;;;2.30;;
48552;SDS011;34335;51.566;6.994;2022-12-18T14:09:29;8.70;;;2.65;;
48552;SDS011;34335;51.566;6.994;2022-12-18T14:11:56;7.90;;;2.85;;
48552;SDS011;34335;51.566;6.994;2022-12-18T14:14:43;3.53;;;2.78;;
48552;SDS011;34335;51.566;6.994;2022-12-18T14:17:12;7.40;;;3.50;;
48552;SDS011;34335;51.566;6.994;2022-12-18T14:19:40;5.28;;;3.22;;
48552;SDS011;34335;51.566;6.994;2022-12-18T14:22:12;3.95;;;2.10;;
48552;SDS011;34335;51.566;6.994;2022-12-18T14:24:40;5.03;;;2.35;;
48552;SDS011;34335;51.566;6.994;2022-12-18T14:27:13;4.65;;;1.75;;
48552;SDS011;34335;51.566;6.994;2022-12-18T14:29:46;2.63;;;1.50;;
48552;SDS011;34335;51.566;6.994;2022-12-18T14:32:12;5.75;;;2.20;;
48552;SDS011;34335;51.566;6.994;2022-12-18T14:34:42;3.67;;;1.85;;
48552;SDS011;34335;51.566;6.994;2022-12-18T14:37:25;2.15;;;1.33;;
48552;SDS011;34335;51.566;6.994;2022-12-18T14:39:56;2.55;;;0.70;;
48552;SDS011;34335;51.566;6.994;2022-12-18T14:42:23;8.38;;;2.42;;
48552;SDS011;34335;51.566;6.994;2022-12-18T14:45:13;2.20;;;0.85;;
48552;SDS011;34335;51.566;6.994;2022-12-18T14:47:56;2.60;;;1.25;;
48552;SDS011;34335;51.566;6.994;2022-12-18T14:50:22;7.45;;;2.95;;
48552;SDS011;34335;51.566;6.994;2022-12-18T14:52:47;4.20;;;1.90;;
48552;SDS011;34335;51.566;6.994;2022-12-18T14:55:21;1.42;;;0.95;;
48552;SDS011;34335;51.566;6.994;2022-12-18T15:00:16;7.05;;;1.98;;
48552;SDS011;34335;51.566;6.994;2022-12-18T15:02:44;3.50;;;1.30;;
48552;SDS011;34335;51.566;6.994;2022-12-18T15:07:45;2.77;;;1.57;;
48552;SDS011;34335;51.566;6.994;2022-12-18T15:18:02;3.53;;;1.38;;
48552;SDS011;34335;51.566;6.994;2022-12-18T15:20:42;7.55;;;1.38;;
48552;SDS011;34335;51.566;6.994;2022-12-18T15:26:02;2.03;;;1.52;;
48552;SDS011;34335;51.566;6.994;2022-12-18T15:28:43;2.90;;;1.83;;
48552;SDS011;34335;51.566;6.994;2022-12-18T15:33:42;3.13;;;0.95;;
48552;SDS011;34335;51.566;6.994;2022-12-18T15:36:14;2.63;;;1.27;;
48552;SDS011;34335;51.566;6.994;2022-12-18T15:38:41;3.05;;;1.38;;
48552;SDS011;34335;51.566;6.994;2022-12-18T15:41:14;1.30;;;0.85;;
48552;SDS011;34335;51.566;6.994;2022-12-18T15:43:41;4.15;;;1.58;;
48552;SDS011;34335;51.566;6.994;2022-12-18T15:46:09;6.03;;;3.13;;
48552;SDS011;34335;51.566;6.994;2022-12-18T15:48:41;7.25;;;2.08;;
48552;SDS011;34335;51.566;6.994;2022-12-18T15:51:13;4.45;;;2.10;;
48552;SDS011;34335;51.566;6.994;2022-12-18T15:53:42;5.70;;;2.08;;
48552;SDS011;34335;51.566;6.994;2022-12-18T15:56:11;3.83;;;2.05;;
48552;SDS011;34335;51.566;6.994;2022-12-18T15:58:56;6.30;;;4.05;;
48552;SDS011;34335;51.566;6.994;2022-12-18T16:01:23;4.68;;;1.63;;
48552;SDS011;34335;51.566;6.994;2022-12-18T16:03:50;6.32;;;2.30;;
48552;SDS011;34335;51.566;6.994;2022-12-18T16:06:15;3.03;;;1.65;;
48552;SDS011;34335;51.566;6.994;2022-12-18T16:08:40;4.13;;;1.85;;
48552;SDS011;34335;51.566;6.994;2022-12-18T16:11:08;4.30;;;2.15;;
48552;SDS011;34335;51.566;6.994;2022-12-18T16:14:02;4.60;;;1.77;;
48552;SDS011;34335;51.566;6.994;2022-12-18T16:16:28;5.28;;;1.42;;
48552;SDS011;34335;51.566;6.994;2022-12-18T16:18:54;5.65;;;2.42;;
48552;SDS011;34335;51.566;6.994;2022-12-18T16:21:19;11.95;;;2.40;;
48552;SDS011;34335;51.566;6.994;2022-12-18T16:23:44;5.77;;;2.77;;
48552;SDS011;34335;51.566;6.994;2022-12-18T16:26:09;3.10;;;1.40;;
48552;SDS011;34335;51.566;6.994;2022-12-18T16:28:34;5.13;;;3.17;;
48552;SDS011;34335;51.566;6.994;2022-12-18T16:31:00;6.87;;;3.20;;
48552;SDS011;34335;51.566;6.994;2022-12-18T16:33:25;6.07;;;2.30;;
48552;SDS011;34335;51.566;6.994;2022-12-18T16:35:51;6.28;;;2.38;;
48552;SDS011;34335;51.566;6.994;2022-12-18T16:38:17;3.70;;;2.10;;
48552;SDS011;34335;51.566;6.994;2022-12-18T16:40:42;5.97;;;2.60;;
48552;SDS011;34335;51.566;6.994;2022-12-18T16:43:27;3.63;;;1.83;;
48552;SDS011;34335;51.566;6.994;2022-12-18T16:45:53;8.10;;;2.88;;